Time;durP1;ratioP1;P1;durP2;ratioP2;P2;SDS_P1;SDS_P2;PMS_P1;PMS_P2;Temp;Humidity;BMP_temperature;BMP_pressure;BME280_temperature;BME280_humidity;BME280_pressure;Samples;Min_cycle;Max_cycle;Signal;HPM_P1;HPM_P2
2021/12/06 00:01:22;;;;;;;201.82;98.28;;;2.70;99.90;;;;;;5042589;28;20029;-52
2021/12/06 00:03:47;;;;;;;200.32;94.65;;;2.60;99.90;;;;;;5034642;28;20135;-52
2021/12/06 00:06:14;;;;;;;212.40;94.82;;;2.60;99.90;;;;;;5037262;28;20473;-53
2021/12/06 00:08:40;;;;;;;222.18;97.50;;;2.60;99.90;;;;;;5040480;28;20516;-55
2021/12/06 00:11:07;;;;;;;207.25;97.78;;;2.70;99.90;;;;;;5038969;28;20041;-53
2021/12/06 00:13:37;;;;;;;223.50;100.72;;;2.60;99.90;;;;;;5034619;28;20067;-54
2021/12/06 00:16:07;;;;;;;229.48;103.45;;;2.60;99.90;;;;;;5032128;28;20057;-53
2021/12/06 00:18:34;;;;;;;221.38;103.05;;;2.60;99.90;;;;;;5032133;28;20033;-53
2021/12/06 00:21:00;;;;;;;223.48;101.40;;;2.60;99.90;;;;;;5031987;28;20029;-52
2021/12/06 00:23:27;;;;;;;203.38;99.03;;;2.60;99.90;;;;;;5032102;28;20105;-52
2021/12/06 00:25:53;;;;;;;211.07;101.38;;;2.70;99.90;;;;;;5032118;28;20060;-52
2021/12/06 00:28:19;;;;;;;221.75;104.10;;;2.70;99.90;;;;;;5031782;28;20041;-54
2021/12/06 00:30:46;;;;;;;211.35;97.75;;;2.70;99.90;;;;;;5036427;28;20029;-53
2021/12/06 00:33:12;;;;;;;210.70;100.15;;;2.60;99.90;;;;;;5051342;28;20055;-54
2021/12/06 00:35:38;;;;;;;205.88;95.80;;;2.60;99.90;;;;;;5051917;28;20625;-51
2021/12/06 00:38:03;;;;;;;212.60;94.70;;;2.60;99.90;;;;;;5051223;28;20033;-52
2021/12/06 00:40:49;;;;;;;215.75;100.05;;;2.70;99.90;;;;;;5052139;28;20032;-52
2021/12/06 00:43:16;;;;;;;202.52;97.45;;;2.70;99.90;;;;;;5051348;28;20036;-50
2021/12/06 00:45:42;;;;;;;201.50;94.68;;;2.60;99.90;;;;;;5051602;28;20112;-52
2021/12/06 00:48:08;;;;;;;201.63;91.53;;;2.60;99.90;;;;;;5051287;28;20035;-51
2021/12/06 00:50:36;;;;;;;212.95;96.13;;;2.60;99.90;;;;;;5062752;28;20474;-52
2021/12/06 00:53:02;;;;;;;209.05;97.97;;;2.60;99.90;;;;;;5070900;28;20120;-52
2021/12/06 00:55:28;;;;;;;205.77;97.30;;;2.60;99.90;;;;;;5071343;28;20104;-51
2021/12/06 00:57:55;;;;;;;212.52;99.50;;;2.60;99.90;;;;;;5071138;28;20518;-51
2021/12/06 01:00:26;;;;;;;230.25;104.40;;;2.70;99.90;;;;;;5071119;28;20026;-51
2021/12/06 01:02:52;;;;;;;210.60;100.53;;;2.60;99.90;;;;;;5053168;28;20415;-52
2021/12/06 01:05:23;;;;;;;226.27;105.57;;;2.60;99.90;;;;;;5071093;28;20407;-53
2021/12/06 01:07:50;;;;;;;214.68;101.97;;;2.60;99.90;;;;;;5071347;28;20100;-52
2021/12/06 01:10:16;;;;;;;214.02;102.60;;;2.60;99.90;;;;;;5070769;28;20043;-53
2021/12/06 01:12:42;;;;;;;219.77;98.82;;;2.60;99.90;;;;;;5071008;28;20032;-52
2021/12/06 01:15:08;;;;;;;204.25;99.38;;;2.50;99.90;;;;;;5070810;28;20111;-50
2021/12/06 01:17:35;;;;;;;212.57;97.43;;;2.60;99.90;;;;;;5070772;28;20036;-52
2021/12/06 01:20:09;;;;;;;198.23;90.00;;;2.60;99.90;;;;;;5070619;28;20021;-54
2021/12/06 01:22:45;;;;;;;199.73;91.00;;;2.60;99.90;;;;;;5070996;28;20036;-51
2021/12/06 01:25:40;;;;;;;175.52;79.07;;;2.60;99.90;;;;;;5070866;28;20056;-53
2021/12/06 01:40:43;;;;;;;134.95;60.72;;;2.60;99.90;;;;;;5051005;28;20571;-53
2021/12/06 01:43:09;;;;;;;135.93;63.70;;;2.60;99.90;;;;;;5050363;28;20112;-52
2021/12/06 01:45:35;;;;;;;115.10;52.13;;;2.60;99.90;;;;;;5049690;28;20028;-52
2021/12/06 01:48:00;;;;;;;90.53;44.60;;;2.60;99.90;;;;;;5050442;28;20068;-53
2021/12/06 01:50:28;;;;;;;83.13;41.05;;;2.60;99.90;;;;;;5052119;28;20530;-51
2021/12/06 01:53:03;;;;;;;;;;;2.60;99.90;;;;;;5070851;28;20047;-50
2021/12/06 01:55:31;;;;;;;78.03;33.92;;;2.60;99.90;;;;;;5052602;28;19904;-52
2021/12/06 01:57:58;;;;;;;80.00;36.47;;;2.50;99.90;;;;;;5070020;28;20128;-53
2021/12/06 02:00:46;;;;;;;66.10;34.13;;;2.50;99.90;;;;;;5052538;28;20025;-58
2021/12/06 02:03:12;;;;;;;54.33;26.15;;;2.50;99.90;;;;;;5048274;28;20459;-52
2021/12/06 02:05:40;;;;;;;53.08;26.10;;;2.50;99.90;;;;;;5035836;28;20376;-53
2021/12/06 02:08:07;;;;;;;45.22;23.98;;;2.50;99.90;;;;;;5049741;28;20021;-51
2021/12/06 02:10:33;;;;;;;49.83;23.90;;;2.40;99.90;;;;;;5050174;28;20033;-52
2021/12/06 02:12:59;;;;;;;45.83;23.00;;;2.30;99.90;;;;;;5049890;28;20459;-51
2021/12/06 02:18:03;;;;;;;44.83;24.52;;;2.30;99.90;;;;;;5050184;28;20771;-53
2021/12/06 02:20:30;;;;;;;49.00;26.52;;;2.40;99.90;;;;;;5050120;28;20029;-52
2021/12/06 02:22:57;;;;;;;48.97;25.17;;;2.30;99.90;;;;;;5049708;28;20032;-53
2021/12/06 02:25:23;;;;;;;51.88;28.77;;;2.30;99.90;;;;;;5050066;28;20025;-51
2021/12/06 02:27:51;;;;;;;52.80;26.50;;;2.40;99.90;;;;;;5032117;28;20025;-52
2021/12/06 02:30:18;;;;;;;49.08;25.13;;;2.40;99.90;;;;;;5031930;28;20036;-52
2021/12/06 02:32:47;;;;;;;50.33;26.58;;;2.30;99.90;;;;;;5049984;28;20048;-51
2021/12/06 02:35:16;;;;;;;53.38;27.70;;;2.30;99.90;;;;;;5049864;28;20480;-51
2021/12/06 02:37:43;;;;;;;53.15;27.65;;;2.30;99.90;;;;;;5049934;28;20164;-53
2021/12/06 02:40:17;;;;;;;57.08;27.95;;;2.30;99.90;;;;;;5049795;28;20061;-53
2021/12/06 02:42:45;;;;;;;59.53;29.05;;;2.30;99.90;;;;;;5050142;28;20112;-53
2021/12/06 02:45:13;;;;;;;71.78;31.70;;;2.30;99.90;;;;;;5049789;28;20028;-52
2021/12/06 02:47:40;;;;;;;78.68;32.65;;;2.30;99.90;;;;;;5049617;28;20044;-52
2021/12/06 02:50:08;;;;;;;71.50;29.90;;;2.30;99.90;;;;;;5050566;28;20029;-53
2021/12/06 02:52:36;;;;;;;89.70;34.60;;;2.30;99.90;;;;;;5069644;28;20044;-51
2021/12/06 02:55:09;;;;;;;;;;;2.20;99.90;;;;;;5070366;28;20017;-53
2021/12/06 02:57:37;;;;;;;87.10;32.42;;;2.20;99.90;;;;;;5071804;28;20422;-53
2021/12/06 03:00:13;;;;;;;94.78;32.75;;;2.20;99.90;;;;;;5060930;28;20056;-54
2021/12/06 03:02:38;;;;;;;111.05;33.60;;;2.20;99.90;;;;;;5053450;28;20021;-53
2021/12/06 03:05:05;;;;;;;107.13;33.65;;;2.10;99.90;;;;;;5053642;28;20040;-52
2021/12/06 03:07:36;;;;;;;106.13;36.03;;;2.10;99.90;;;;;;5053080;28;20432;-54
2021/12/06 03:10:02;;;;;;;105.72;36.35;;;2.10;99.90;;;;;;5053084;28;20408;-52
2021/12/06 03:12:28;;;;;;;102.32;37.85;;;2.10;99.90;;;;;;5053224;28;20035;-52
2021/12/06 03:14:59;;;;;;;100.20;39.33;;;2.10;99.90;;;;;;5052858;28;20116;-53
2021/12/06 03:17:28;;;;;;;101.50;36.65;;;2.10;99.90;;;;;;5053042;28;20044;-53
2021/12/06 03:19:54;;;;;;;114.70;37.53;;;2.10;99.90;;;;;;5053349;28;20040;-54
2021/12/06 03:22:20;;;;;;;107.97;35.85;;;2.00;99.90;;;;;;5052946;28;20036;-53
2021/12/06 03:24:46;;;;;;;92.40;35.47;;;2.00;99.90;;;;;;5052869;28;20342;-54
2021/12/06 03:27:13;;;;;;;109.35;39.03;;;2.00;99.90;;;;;;5052681;28;20044;-55
2021/12/06 03:29:38;;;;;;;;;;;2.00;99.90;;;;;;5053534;28;20025;-53
2021/12/06 03:32:05;;;;;;;98.97;34.55;;;2.00;99.90;;;;;;5053182;28;19917;-53
2021/12/06 03:34:31;;;;;;;113.88;34.15;;;2.00;99.90;;;;;;5052890;28;20028;-52
2021/12/06 03:36:59;;;;;;;128.55;38.95;;;1.90;99.90;;;;;;5052637;28;20496;-52
2021/12/06 03:39:41;;;;;;;102.55;40.78;;;1.90;99.90;;;;;;5052165;28;20080;-52
2021/12/06 03:42:10;;;;;;;103.45;39.15;;;1.90;99.90;;;;;;5052908;28;20421;-53
2021/12/06 03:44:36;;;;;;;101.07;36.92;;;1.80;99.90;;;;;;5034474;28;20037;-52
2021/12/06 03:47:08;;;;;;;96.40;35.80;;;1.80;99.90;;;;;;5052591;28;20668;-53
2021/12/06 03:49:35;;;;;;;85.53;34.33;;;1.80;99.90;;;;;;5046231;28;20481;-52
2021/12/06 03:52:02;;;;;;;87.75;33.17;;;1.80;99.90;;;;;;5065593;28;20115;-53
2021/12/06 03:54:29;;;;;;;81.65;34.88;;;1.80;99.90;;;;;;5072359;28;20119;-52
2021/12/06 03:56:58;;;;;;;88.30;35.97;;;1.80;99.90;;;;;;5072715;28;20033;-52
2021/12/06 03:59:25;;;;;;;86.25;34.92;;;1.80;99.90;;;;;;5065265;28;20384;-52
2021/12/06 04:01:52;;;;;;;92.23;32.17;;;1.80;99.90;;;;;;5052144;28;20392;-53
2021/12/06 04:04:18;;;;;;;84.03;33.35;;;1.80;99.90;;;;;;5052360;28;20299;-52
2021/12/06 04:06:44;;;;;;;81.30;33.65;;;1.80;99.90;;;;;;5052580;28;20061;-53
2021/12/06 04:09:11;;;;;;;87.90;34.20;;;1.80;99.90;;;;;;5033298;28;20052;-52
2021/12/06 04:11:37;;;;;;;72.88;30.20;;;1.70;99.90;;;;;;5052095;28;20396;-52
2021/12/06 04:14:05;;;;;;;83.72;32.42;;;1.70;99.90;;;;;;5052080;28;20025;-53
2021/12/06 04:16:32;;;;;;;72.60;30.63;;;1.70;99.90;;;;;;5052147;28;20049;-52
2021/12/06 04:18:57;;;;;;;78.65;33.40;;;1.80;99.90;;;;;;5051943;28;20021;-52
2021/12/06 04:21:25;;;;;;;70.68;31.20;;;1.80;99.90;;;;;;5051859;28;20163;-52
2021/12/06 04:23:51;;;;;;;;;;;1.80;99.90;;;;;;5052372;28;20028;-52
2021/12/06 04:26:17;;;;;;;71.82;29.80;;;1.80;99.90;;;;;;5051780;28;19905;-53
2021/12/06 04:28:47;;;;;;;62.85;29.13;;;1.80;99.90;;;;;;5051739;28;20495;-51
2021/12/06 04:31:15;;;;;;;55.22;26.10;;;1.80;99.90;;;;;;5052069;28;20107;-53
2021/12/06 04:33:41;;;;;;;49.70;24.98;;;1.80;99.90;;;;;;5051527;28;20078;-52
2021/12/06 04:36:07;;;;;;;43.50;24.15;;;1.80;99.90;;;;;;5051673;28;20051;-53
2021/12/06 04:38:32;;;;;;;47.90;23.20;;;1.80;99.90;;;;;;5051355;28;20527;-52
2021/12/06 04:40:58;;;;;;;43.85;23.27;;;1.70;99.90;;;;;;5051631;28;20029;-51
2021/12/06 04:43:24;;;;;;;54.53;27.98;;;1.80;99.90;;;;;;5051554;28;20049;-53
2021/12/06 04:45:50;;;;;;;55.38;27.15;;;1.80;99.90;;;;;;5051505;28;20017;-52
2021/12/06 04:48:16;;;;;;;60.08;30.13;;;1.80;99.90;;;;;;5051363;28;20054;-52
2021/12/06 04:50:42;;;;;;;63.58;33.10;;;1.80;99.90;;;;;;5046862;28;20111;-52
2021/12/06 04:53:18;;;;;;;64.30;32.75;;;1.70;99.90;;;;;;5071424;28;20041;-53
2021/12/06 04:55:58;;;;;;;55.20;28.02;;;1.80;99.90;;;;;;5070028;28;20040;-52
2021/12/06 04:58:30;;;;;;;50.78;27.02;;;1.70;99.90;;;;;;5055168;28;20398;-53
2021/12/06 05:01:03;;;;;;;50.90;26.55;;;1.80;99.90;;;;;;5051369;28;20405;-52
2021/12/06 05:03:28;;;;;;;51.22;26.33;;;1.70;99.90;;;;;;5051196;28;20032;-53
2021/12/06 05:06:00;;;;;;;52.55;26.63;;;1.70;99.90;;;;;;5051315;28;20025;-53
2021/12/06 05:08:33;;;;;;;44.88;24.27;;;1.70;99.90;;;;;;5050890;28;20043;-53
2021/12/06 05:11:01;;;;;;;42.53;21.88;;;1.70;99.90;;;;;;5050878;28;20029;-54
2021/12/06 05:13:29;;;;;;;45.40;24.42;;;1.60;99.90;;;;;;5051041;28;20128;-53
2021/12/06 05:15:55;;;;;;;37.67;21.63;;;1.60;99.90;;;;;;5050657;28;20112;-58
2021/12/06 05:18:21;;;;;;;40.83;22.45;;;1.70;99.90;;;;;;5050843;28;20068;-53
2021/12/06 05:20:47;;;;;;;36.72;20.38;;;1.70;99.90;;;;;;5050671;28;20020;-52
2021/12/06 05:23:13;;;;;;;44.63;23.05;;;1.70;99.90;;;;;;5050393;28;20080;-52
2021/12/06 05:25:39;;;;;;;48.13;22.90;;;1.70;99.90;;;;;;5050725;28;20047;-51
2021/12/06 05:28:05;;;;;;;42.13;20.92;;;1.70;99.90;;;;;;5032676;28;20025;-52
2021/12/06 05:30:33;;;;;;;38.28;20.73;;;1.70;99.90;;;;;;5050835;28;20231;-52
2021/12/06 05:33:01;;;;;;;36.63;19.70;;;1.70;99.90;;;;;;5050647;28;20040;-51
2021/12/06 05:35:27;;;;;;;37.47;18.90;;;1.60;99.90;;;;;;5050724;28;20075;-51
2021/12/06 05:37:57;;;;;;;39.72;20.95;;;1.60;99.90;;;;;;5050314;28;20380;-51
2021/12/06 05:40:33;;;;;;;40.20;21.83;;;1.60;99.90;;;;;;5050159;28;20128;-52
2021/12/06 05:43:00;;;;;;;39.35;21.05;;;1.60;99.90;;;;;;5032921;28;20060;-52
2021/12/06 05:45:29;;;;;;;43.30;22.27;;;1.60;99.90;;;;;;5050250;28;20040;-51
2021/12/06 05:47:55;;;;;;;40.95;20.23;;;1.60;99.90;;;;;;5050160;28;20033;-54
2021/12/06 05:50:23;;;;;;;41.90;22.90;;;1.50;99.90;;;;;;5044801;28;20027;-53
2021/12/06 05:52:49;;;;;;;47.40;22.55;;;1.60;99.90;;;;;;5070336;28;20040;-51
2021/12/06 05:55:14;;;;;;;42.10;21.70;;;1.60;99.90;;;;;;5070320;28;20024;-51
2021/12/06 05:57:42;;;;;;;41.17;20.70;;;1.60;99.90;;;;;;5070366;28;20381;-52
2021/12/06 06:00:11;;;;;;;39.67;21.13;;;1.60;99.90;;;;;;5057113;28;20036;-52
2021/12/06 06:02:37;;;;;;;41.33;20.95;;;1.70;99.90;;;;;;5049960;28;20065;-52
2021/12/06 06:05:04;;;;;;;42.35;21.33;;;1.70;99.90;;;;;;5049993;28;20064;-52
2021/12/06 06:07:30;;;;;;;49.10;26.20;;;1.70;99.90;;;;;;5050110;28;20060;-51
2021/12/06 06:09:56;;;;;;;51.97;26.05;;;1.70;99.90;;;;;;5050019;28;20436;-52
2021/12/06 06:12:21;;;;;;;52.45;25.38;;;1.70;99.90;;;;;;5049879;28;20064;-52
2021/12/06 06:14:47;;;;;;;57.97;28.35;;;1.70;99.90;;;;;;5049970;28;20025;-53
2021/12/06 06:17:15;;;;;;;54.53;25.27;;;1.70;99.90;;;;;;5050051;28;20483;-52
2021/12/06 06:19:45;;;;;;;51.67;25.75;;;1.70;99.90;;;;;;5050107;28;20583;-51
2021/12/06 06:22:11;;;;;;;49.30;25.75;;;1.60;99.90;;;;;;5049926;28;20143;-52
2021/12/06 06:24:37;;;;;;;58.38;26.20;;;1.60;99.90;;;;;;5050087;28;20112;-52
2021/12/06 06:27:04;;;;;;;54.53;25.25;;;1.60;99.90;;;;;;5050120;28;20048;-51
2021/12/06 06:29:31;;;;;;;50.38;24.75;;;1.60;99.90;;;;;;5049851;28;20030;-51
2021/12/06 06:31:57;;;;;;;51.88;25.40;;;1.60;99.90;;;;;;5050952;28;20052;-52
2021/12/06 06:34:23;;;;;;;50.27;23.63;;;1.60;99.90;;;;;;5054126;28;20017;-53
2021/12/06 06:36:49;;;;;;;52.83;25.20;;;1.60;99.90;;;;;;5054097;28;20267;-53
2021/12/06 06:39:19;;;;;;;47.38;22.65;;;1.60;99.90;;;;;;5053565;28;20405;-52
2021/12/06 06:41:45;;;;;;;55.90;24.98;;;1.60;99.90;;;;;;5036125;28;20099;-51
2021/12/06 06:44:11;;;;;;;46.40;23.17;;;1.70;99.90;;;;;;5053722;28;20057;-52
2021/12/06 06:46:37;;;;;;;55.67;26.40;;;1.70;99.90;;;;;;5053640;28;20085;-53
2021/12/06 06:49:03;;;;;;;54.38;25.58;;;1.60;99.90;;;;;;5053141;28;20021;-53
2021/12/06 06:51:29;;;;;;;56.65;28.77;;;1.60;99.90;;;;;;5057777;28;20033;-52
2021/12/06 06:53:56;;;;;;;62.00;29.80;;;1.60;99.90;;;;;;5073499;28;20031;-53
2021/12/06 06:56:22;;;;;;;61.60;29.80;;;1.60;99.90;;;;;;5073496;28;20102;-52
2021/12/06 06:58:47;;;;;;;55.40;30.08;;;1.60;99.90;;;;;;5071524;28;20032;-52
2021/12/06 07:01:13;;;;;;;58.15;28.13;;;1.60;99.90;;;;;;5053560;28;20068;-52
2021/12/06 07:03:39;;;;;;;61.53;29.58;;;1.60;99.90;;;;;;5053294;28;20477;-53
2021/12/06 07:06:05;;;;;;;63.75;30.58;;;1.60;99.90;;;;;;5053185;28;20063;-53
2021/12/06 07:08:30;;;;;;;62.05;31.67;;;1.60;99.90;;;;;;5053532;28;20053;-54
2021/12/06 07:10:56;;;;;;;60.30;31.33;;;1.70;99.90;;;;;;5051710;28;20033;-52
2021/12/06 07:13:26;;;;;;;62.10;31.00;;;1.70;99.90;;;;;;5053229;28;20033;-54
2021/12/06 07:15:52;;;;;;;57.92;30.98;;;1.70;99.90;;;;;;5053143;28;20484;-53
2021/12/06 07:18:17;;;;;;;62.88;35.70;;;1.70;99.90;;;;;;5053022;28;20087;-55
2021/12/06 07:20:44;;;;;;;66.90;35.70;;;1.60;99.90;;;;;;5034739;28;20021;-52
2021/12/06 07:23:10;;;;;;;69.23;35.63;;;1.60;99.90;;;;;;5053069;28;20436;-53
2021/12/06 07:25:37;;;;;;;71.18;37.75;;;1.60;99.90;;;;;;5053245;28;20021;-52
2021/12/06 07:28:05;;;;;;;67.13;33.35;;;1.60;99.90;;;;;;5053048;28;20036;-53
2021/12/06 07:30:31;;;;;;;68.63;34.13;;;1.60;99.90;;;;;;5052978;28;20052;-53
2021/12/06 07:32:57;;;;;;;67.93;34.17;;;1.60;99.90;;;;;;5052892;28;20037;-53
2021/12/06 07:35:23;;;;;;;71.38;33.45;;;1.60;99.90;;;;;;5052628;28;20026;-54
2021/12/06 07:37:50;;;;;;;76.57;35.20;;;1.60;99.90;;;;;;5052152;28;20035;-53
2021/12/06 07:40:17;;;;;;;81.68;39.83;;;1.60;99.90;;;;;;5052546;28;20291;-53
2021/12/06 07:42:43;;;;;;;75.38;35.63;;;1.60;99.90;;;;;;5052418;28;20040;-52
2021/12/06 07:45:11;;;;;;;86.15;40.20;;;1.60;99.90;;;;;;5051720;28;20499;-53
2021/12/06 07:47:37;;;;;;;85.85;39.42;;;1.70;99.90;;;;;;5035209;28;20048;-53
2021/12/06 07:50:12;;;;;;;86.40;41.13;;;1.70;99.90;;;;;;5052729;28;20017;-54
2021/12/06 07:52:40;;;;;;;78.35;37.40;;;1.70;99.90;;;;;;5072709;28;20415;-52
2021/12/06 07:55:10;;;;;;;79.60;38.10;;;1.70;99.90;;;;;;5072313;28;20036;-51
2021/12/06 07:57:35;;;;;;;81.28;36.67;;;1.80;99.90;;;;;;5072568;28;20116;-52
2021/12/06 08:00:06;;;;;;;83.35;37.78;;;1.80;99.90;;;;;;5060100;28;20136;-52
2021/12/06 08:02:32;;;;;;;78.03;37.33;;;1.80;99.90;;;;;;5052800;28;20056;-52
2021/12/06 08:05:29;;;;;;;84.70;39.13;;;1.70;99.90;;;;;;5052170;28;20029;-53
2021/12/06 08:07:46;;;;;;;;;;;1.70;99.90;;;;;;5052472;28;20377;-53
2021/12/06 08:10:13;;;;;;;89.43;41.22;;;1.70;99.90;;;;;;5052113;28;19909;-52
2021/12/06 08:12:38;;;;;;;89.03;40.93;;;1.60;99.90;;;;;;5052141;28;20037;-53
2021/12/06 08:15:05;;;;;;;87.28;40.28;;;1.60;99.90;;;;;;5051873;28;20270;-54
2021/12/06 08:17:30;;;;;;;83.68;39.85;;;1.70;99.90;;;;;;5051437;28;20040;-54
2021/12/06 08:19:56;;;;;;;78.82;37.05;;;1.70;99.90;;;;;;5051902;28;20029;-53
2021/12/06 08:22:22;;;;;;;80.78;37.97;;;1.60;99.90;;;;;;5034127;28;20103;-53
2021/12/06 08:24:47;;;;;;;70.78;34.22;;;1.60;99.90;;;;;;5051946;28;20021;-53
2021/12/06 08:27:13;;;;;;;65.07;32.40;;;1.70;99.90;;;;;;5051829;28;20033;-53
2021/12/06 08:29:39;;;;;;;71.88;33.80;;;1.60;99.90;;;;;;5051470;28;20036;-53
2021/12/06 08:32:07;;;;;;;72.55;37.03;;;1.60;99.90;;;;;;5049941;28;20135;-54
2021/12/06 08:34:33;;;;;;;69.55;34.55;;;1.60;99.90;;;;;;5050148;28;20025;-54
2021/12/06 08:37:00;;;;;;;75.32;35.35;;;1.60;99.90;;;;;;5050066;28;20047;-54
2021/12/06 08:39:26;;;;;;;77.10;37.55;;;1.60;99.90;;;;;;5049296;28;20132;-52
2021/12/06 08:41:52;;;;;;;79.97;36.40;;;1.60;99.90;;;;;;5049933;28;20152;-52
2021/12/06 08:44:18;;;;;;;81.88;38.20;;;1.70;99.90;;;;;;5050618;28;20057;-53
2021/12/06 08:46:44;;;;;;;83.57;37.70;;;1.70;99.90;;;;;;5051299;28;20032;-54
2021/12/06 08:49:10;;;;;;;75.97;35.77;;;1.70;99.90;;;;;;5050215;28;20037;-51
2021/12/06 08:51:44;;;;;;;69.97;34.70;;;1.70;99.90;;;;;;5058122;28;20040;-53
2021/12/06 08:54:12;;;;;;;74.25;34.33;;;1.70;99.90;;;;;;5070981;28;20036;-52
2021/12/06 08:56:38;;;;;;;77.72;33.13;;;1.70;99.90;;;;;;5071127;28;20023;-52
2021/12/06 08:59:06;;;;;;;60.45;30.83;;;1.70;99.90;;;;;;5066743;28;20021;-52
2021/12/06 09:01:33;;;;;;;71.43;34.40;;;1.70;99.90;;;;;;5051264;28;20037;-53
2021/12/06 09:03:59;;;;;;;74.22;35.35;;;1.70;99.90;;;;;;5051229;28;20388;-51
2021/12/06 09:06:25;;;;;;;77.50;36.70;;;1.70;99.90;;;;;;5051319;28;20051;-52
2021/12/06 09:08:51;;;;;;;81.80;39.25;;;1.70;99.90;;;;;;5033106;28;20028;-52
2021/12/06 09:11:18;;;;;;;77.50;35.90;;;1.70;99.90;;;;;;5051614;28;20033;-53
2021/12/06 09:13:44;;;;;;;75.95;36.30;;;1.60;99.90;;;;;;5016698;28;20057;-52
2021/12/06 09:16:11;;;;;;;80.55;40.40;;;1.60;99.90;;;;;;5051337;28;20500;-54
2021/12/06 09:18:39;;;;;;;79.20;39.35;;;1.60;99.90;;;;;;5032808;28;20036;-53
2021/12/06 09:21:09;;;;;;;87.65;38.35;;;1.70;99.90;;;;;;5050840;28;20100;-52
2021/12/06 09:23:35;;;;;;;81.80;38.65;;;1.60;99.90;;;;;;5050591;28;20021;-53
2021/12/06 09:26:01;;;;;;;69.57;35.53;;;1.70;99.90;;;;;;5050842;28;20547;-52
2021/12/06 09:28:28;;;;;;;74.15;35.88;;;1.70;99.90;;;;;;5050624;28;20052;-53
2021/12/06 09:30:55;;;;;;;70.53;33.00;;;1.70;99.90;;;;;;5050743;28;20107;-52
2021/12/06 09:33:21;;;;;;;66.90;32.85;;;1.70;99.90;;;;;;5032787;28;20300;-54
2021/12/06 09:35:48;;;;;;;63.58;32.40;;;1.70;99.90;;;;;;5101405;22;20094;-86
2021/12/06 09:38:20;;;;;;;65.05;32.35;;;1.70;99.90;;;;;;5070707;28;20020;-85
2021/12/06 09:40:49;;;;;;;62.55;30.05;;;1.70;99.90;;;;;;5052166;28;20467;-86
2021/12/06 09:43:19;;;;;;;63.65;29.90;;;1.70;99.90;;;;;;5054144;28;20036;-86
2021/12/06 09:45:47;;;;;;;62.40;31.95;;;1.60;99.90;;;;;;5072412;28;20147;-83
2021/12/06 09:48:19;;;;;;;60.83;29.60;;;1.60;99.90;;;;;;5051954;28;20025;-84
2021/12/06 09:51:06;;;;;;;55.45;30.38;;;1.60;99.90;;;;;;5061403;28;20024;-83
2021/12/06 09:53:35;;;;;;;59.45;30.50;;;1.60;99.90;;;;;;5070091;28;20090;-85
2021/12/06 09:56:06;;;;;;;60.20;31.17;;;1.60;99.90;;;;;;5069564;28;20379;-82
2021/12/06 09:58:33;;;;;;;65.47;31.58;;;1.60;99.90;;;;;;5069390;28;20446;-82
2021/12/06 10:01:04;;;;;;;;;;;1.60;99.90;;;;;;5070386;28;20048;-83
2021/12/06 10:03:30;;;;;;;60.10;29.40;;;1.60;99.90;;;;;;5052261;28;19930;-84
2021/12/06 10:06:02;;;;;;;59.78;31.05;;;1.60;99.90;;;;;;5071396;28;20482;-82
2021/12/06 10:08:36;;;;;;;65.40;29.73;;;1.50;99.90;;;;;;5079339;28;20047;-82
2021/12/06 10:11:04;;;;;;;59.70;29.63;;;1.50;99.90;;;;;;5080598;28;20025;-84
2021/12/06 10:13:30;;;;;;;62.72;29.95;;;1.50;99.90;;;;;;5058630;28;20044;-82
2021/12/06 10:15:55;;;;;;;71.35;34.28;;;1.50;99.90;;;;;;5073833;28;20024;-82
2021/12/06 10:18:21;;;;;;;73.97;33.80;;;1.50;99.90;;;;;;5071303;28;20152;-84
2021/12/06 10:20:49;;;;;;;74.50;35.85;;;1.60;99.90;;;;;;5071703;28;20349;-83
2021/12/06 10:23:15;;;;;;;;;;;1.60;99.90;;;;;;5055106;28;20838;-81
2021/12/06 10:25:45;;;;;;;82.30;38.20;;;1.60;99.90;;;;;;5072976;28;20271;-83
2021/12/06 10:28:12;;;;;;;72.25;36.85;;;1.60;99.90;;;;;;5053648;28;20064;-83
2021/12/06 10:30:46;;;;;;;76.47;33.95;;;1.60;99.90;;;;;;5071745;28;20030;-82
2021/12/06 10:33:14;;;;;;;68.38;33.00;;;1.60;99.90;;;;;;5054426;28;20032;-81
2021/12/06 10:35:43;;;;;;;69.30;34.40;;;1.50;99.90;;;;;;5055193;28;20059;-82
2021/12/06 10:38:09;;;;;;;71.72;33.67;;;1.60;99.90;;;;;;5072627;28;20162;-82
2021/12/06 10:40:40;;;;;;;59.97;32.58;;;1.60;99.90;;;;;;5072812;28;20028;-82
2021/12/06 10:43:12;;;;;;;63.33;32.15;;;1.60;99.90;;;;;;5071387;28;20082;-82
2021/12/06 10:45:47;;;;;;;61.17;30.98;;;1.60;99.90;;;;;;5071376;28;20024;-80
2021/12/06 10:48:15;;;;;;;65.72;33.53;;;1.70;99.90;;;;;;5069813;28;20111;-82
2021/12/06 10:50:43;;;;;;;69.63;35.80;;;1.60;99.90;;;;;;5047402;28;20025;-83
2021/12/06 10:53:11;;;;;;;72.85;37.08;;;1.60;99.90;;;;;;5050401;28;20539;-81
2021/12/06 10:55:38;;;;;;;75.03;36.53;;;1.50;99.90;;;;;;5049868;28;20064;-81
2021/12/06 10:58:07;;;;;;;55.70;29.83;;;1.70;99.90;;;;;;5050278;28;20029;-83
2021/12/06 11:00:45;;;;;;;63.78;32.88;;;1.70;99.90;;;;;;5067352;28;20032;-85
2021/12/06 11:03:36;;;;;;;57.05;28.27;;;1.70;99.90;;;;;;5071533;28;20128;-84
2021/12/06 11:06:09;;;;;;;50.70;28.55;;;1.70;99.90;;;;;;5071723;28;20086;-83
2021/12/06 11:08:37;;;;;;;62.78;29.90;;;1.60;99.90;;;;;;5071845;28;20020;-81
2021/12/06 11:11:10;;;;;;;58.08;30.92;;;1.60;99.90;;;;;;5071562;28;20056;-82
2021/12/06 11:13:39;;;;;;;50.05;28.33;;;1.70;99.90;;;;;;5072443;28;20108;-82
2021/12/06 11:16:07;;;;;;;51.05;26.98;;;1.70;99.90;;;;;;5071934;28;20075;-81
2021/12/06 11:18:36;;;;;;;54.33;27.77;;;1.60;99.90;;;;;;5071543;28;20028;-81
2021/12/06 11:21:04;;;;;;;48.55;25.95;;;1.60;99.90;;;;;;5072786;28;20039;-81
2021/12/06 11:23:30;;;;;;;49.80;26.42;;;1.70;99.90;;;;;;5071571;28;20080;-81
2021/12/06 11:26:04;;;;;;;43.57;22.83;;;1.60;99.90;;;;;;5073117;28;20059;-83
2021/12/06 11:28:32;;;;;;;44.03;23.77;;;1.60;99.90;;;;;;5070549;28;20028;-84
2021/12/06 11:31:06;;;;;;;48.75;25.88;;;1.60;99.90;;;;;;5071159;28;20028;-83
2021/12/06 11:33:35;;;;;;;51.05;26.23;;;1.70;99.90;;;;;;5072358;28;20488;-84
2021/12/06 11:36:17;;;;;;;54.25;26.13;;;1.70;99.90;;;;;;5072419;28;20044;-81
2021/12/06 11:38:48;;;;;;;48.88;24.98;;;1.80;99.90;;;;;;5072046;28;20029;-82
2021/12/06 11:41:14;;;;;;;46.58;24.50;;;1.70;99.90;;;;;;5070674;28;20063;-84
2021/12/06 11:43:40;;;;;;;44.08;24.35;;;1.70;99.90;;;;;;5057909;28;20048;-81
2021/12/06 11:46:08;;;;;;;47.42;24.58;;;1.70;99.90;;;;;;5050656;28;20545;-87
2021/12/06 11:48:37;;;;;;;48.42;24.98;;;1.70;99.90;;;;;;5050630;28;20060;-85
2021/12/06 11:51:12;;;;;;;50.78;26.77;;;1.70;99.90;;;;;;5053444;28;20031;-85
2021/12/06 11:54:01;;;;;;;51.95;28.40;;;1.80;99.90;;;;;;5062682;28;20453;-88
2021/12/06 11:56:31;;;;;;;50.42;27.15;;;1.70;99.90;;;;;;5058016;28;20182;-86
2021/12/06 11:58:59;;;;;;;57.55;30.02;;;1.70;99.90;;;;;;5068970;28;20021;-83
2021/12/06 12:01:39;;;;;;;60.17;29.52;;;1.80;99.90;;;;;;5065922;28;20112;-87
2021/12/06 12:04:12;;;;;;;67.70;32.55;;;1.80;99.90;;;;;;5064117;28;20353;-87
2021/12/06 12:06:44;;;;;;;59.85;31.17;;;1.70;99.90;;;;;;5058315;28;20013;-83
2021/12/06 12:09:28;;;;;;;57.90;28.92;;;1.70;99.90;;;;;;5057240;28;20010;-86
2021/12/06 12:11:59;;;;;;;56.67;31.05;;;1.80;99.90;;;;;;5062284;28;20025;-84
2021/12/06 12:14:50;;;;;;;53.17;28.08;;;1.70;99.90;;;;;;5064112;28;20041;-85
2021/12/06 12:17:22;;;;;;;51.97;26.80;;;1.60;99.90;;;;;;5062437;28;20033;-86
2021/12/06 12:19:51;;;;;;;45.70;25.25;;;1.60;99.90;;;;;;5043640;28;20083;-85
2021/12/06 12:22:18;;;;;;;46.35;24.65;;;1.60;99.90;;;;;;5062084;28;20060;-85
2021/12/06 12:24:48;;;;;;;44.10;23.92;;;1.60;99.90;;;;;;5060993;28;20084;-85
2021/12/06 12:29:49;;;;;;;50.90;26.95;;;1.60;99.90;;;;;;5051849;28;20083;-85
2021/12/06 12:32:16;;;;;;;46.63;25.67;;;1.60;99.90;;;;;;5097844;23;21113;-53
2021/12/06 12:34:45;;;;;;;48.58;26.23;;;1.70;99.90;;;;;;5055031;28;20033;-52
2021/12/06 12:37:12;;;;;;;50.38;26.83;;;1.70;99.90;;;;;;5060318;28;20028;-53
2021/12/06 12:39:38;;;;;;;46.47;25.88;;;1.70;99.90;;;;;;5057267;28;20404;-51
2021/12/06 12:42:07;;;;;;;49.28;28.02;;;1.60;99.90;;;;;;5056577;28;20422;-52
2021/12/06 12:44:48;;;;;;;48.25;25.20;;;1.60;99.90;;;;;;5058979;28;20033;-50
2021/12/06 12:47:24;;;;;;;56.55;27.65;;;1.60;99.90;;;;;;5053628;28;20120;-52
2021/12/06 12:49:53;;;;;;;49.58;24.33;;;1.50;99.90;;;;;;5035425;28;20112;-53
2021/12/06 12:52:39;;;;;;;49.80;26.80;;;1.50;99.90;;;;;;5048476;28;20036;-53
2021/12/06 12:55:34;;;;;;;51.90;26.70;;;1.50;99.90;;;;;;5048096;28;20037;-52
2021/12/06 12:58:17;;;;;;;50.22;26.08;;;1.50;99.90;;;;;;5048562;28;20047;-53
2021/12/06 13:00:59;;;;;;;48.33;25.45;;;1.50;99.90;;;;;;5049008;28;20496;-52
2021/12/06 13:03:41;;;;;;;48.33;24.60;;;1.50;99.90;;;;;;5050072;28;20021;-53